sensor_id;sensor_type;location;lat;lon;timestamp;P1;durP1;ratioP1;P2;durP2;ratioP2
21798;SDS011;24973;47.178;15.316;2023-08-20T00:00:30;17.10;;;15.30;;
21798;SDS011;24973;47.178;15.316;2023-08-20T00:03:19;15.83;;;14.10;;
21798;SDS011;24973;47.178;15.316;2023-08-20T00:06:10;19.03;;;15.53;;
21798;SDS011;24973;47.178;15.316;2023-08-20T00:09:00;16.37;;;14.47;;
21798;SDS011;24973;47.178;15.316;2023-08-20T00:11:49;17.67;;;15.77;;
21798;SDS011;24973;47.178;15.316;2023-08-20T00:14:54;18.27;;;16.33;;
21798;SDS011;24973;47.178;15.316;2023-08-20T00:17:45;21.07;;;16.37;;
21798;SDS011;24973;47.178;15.316;2023-08-20T00:20:35;20.10;;;17.23;;
21798;SDS011;24973;47.178;15.316;2023-08-20T00:23:26;19.17;;;16.43;;
21798;SDS011;24973;47.178;15.316;2023-08-20T00:26:16;19.30;;;16.20;;
21798;SDS011;24973;47.178;15.316;2023-08-20T00:29:05;19.20;;;17.10;;
21798;SDS011;24973;47.178;15.316;2023-08-20T00:31:54;21.77;;;17.93;;
21798;SDS011;24973;47.178;15.316;2023-08-20T00:34:43;16.80;;;15.00;;
21798;SDS011;24973;47.178;15.316;2023-08-20T00:37:32;18.97;;;15.63;;
21798;SDS011;24973;47.178;15.316;2023-08-20T00:40:23;21.33;;;15.80;;
21798;SDS011;24973;47.178;15.316;2023-08-20T00:43:12;20.10;;;17.93;;
21798;SDS011;24973;47.178;15.316;2023-08-20T00:46:01;18.10;;;15.83;;
21798;SDS011;24973;47.178;15.316;2023-08-20T00:48:50;19.60;;;16.20;;
21798;SDS011;24973;47.178;15.316;2023-08-20T00:51:39;17.70;;;15.77;;
21798;SDS011;24973;47.178;15.316;2023-08-20T00:54:28;18.70;;;16.43;;
21798;SDS011;24973;47.178;15.316;2023-08-20T00:57:19;18.63;;;15.53;;
21798;SDS011;24973;47.178;15.316;2023-08-20T01:00:08;22.43;;;17.10;;
21798;SDS011;24973;47.178;15.316;2023-08-20T01:02:58;21.07;;;18.23;;
21798;SDS011;24973;47.178;15.316;2023-08-20T01:05:49;19.20;;;16.37;;
21798;SDS011;24973;47.178;15.316;2023-08-20T01:08:41;20.10;;;16.43;;
21798;SDS011;24973;47.178;15.316;2023-08-20T01:11:33;17.13;;;15.17;;
21798;SDS011;24973;47.178;15.316;2023-08-20T01:14:26;19.70;;;15.63;;
21798;SDS011;24973;47.178;15.316;2023-08-20T01:17:15;19.90;;;17.03;;
21798;SDS011;24973;47.178;15.316;2023-08-20T01:20:05;21.60;;;15.77;;
21798;SDS011;24973;47.178;15.316;2023-08-20T01:26:33;22.20;;;18.10;;
21798;SDS011;24973;47.178;15.316;2023-08-20T01:29:32;23.33;;;17.47;;
21798;SDS011;24973;47.178;15.316;2023-08-20T01:32:22;22.23;;;18.20;;
21798;SDS011;24973;47.178;15.316;2023-08-20T01:35:11;19.70;;;17.63;;
21798;SDS011;24973;47.178;15.316;2023-08-20T01:38:01;19.50;;;16.17;;
21798;SDS011;24973;47.178;15.316;2023-08-20T01:40:50;18.10;;;15.10;;
21798;SDS011;24973;47.178;15.316;2023-08-20T01:43:39;21.37;;;16.97;;
21798;SDS011;24973;47.178;15.316;2023-08-20T01:46:30;19.50;;;17.17;;
21798;SDS011;24973;47.178;15.316;2023-08-20T01:49:19;22.13;;;17.67;;
21798;SDS011;24973;47.178;15.316;2023-08-20T01:52:08;20.43;;;18.23;;
21798;SDS011;24973;47.178;15.316;2023-08-20T01:54:57;22.43;;;19.17;;
21798;SDS011;24973;47.178;15.316;2023-08-20T01:57:46;28.60;;;18.43;;
21798;SDS011;24973;47.178;15.316;2023-08-20T02:00:35;21.83;;;17.83;;
21798;SDS011;24973;47.178;15.316;2023-08-20T02:03:26;25.10;;;18.13;;
21798;SDS011;24973;47.178;15.316;2023-08-20T02:06:15;24.63;;;18.53;;
21798;SDS011;24973;47.178;15.316;2023-08-20T02:09:04;23.10;;;18.83;;
21798;SDS011;24973;47.178;15.316;2023-08-20T02:11:53;21.13;;;18.07;;
21798;SDS011;24973;47.178;15.316;2023-08-20T02:14:42;20.50;;;17.35;;
21798;SDS011;24973;47.178;15.316;2023-08-20T02:17:31;20.37;;;16.43;;
21798;SDS011;24973;47.178;15.316;2023-08-20T02:20:24;19.27;;;16.70;;
21798;SDS011;24973;47.178;15.316;2023-08-20T02:23:14;21.93;;;17.03;;
21798;SDS011;24973;47.178;15.316;2023-08-20T02:26:03;23.50;;;19.07;;
21798;SDS011;24973;47.178;15.316;2023-08-20T02:28:52;23.37;;;18.40;;
21798;SDS011;24973;47.178;15.316;2023-08-20T02:31:41;19.63;;;16.50;;
21798;SDS011;24973;47.178;15.316;2023-08-20T02:34:30;20.37;;;17.13;;
21798;SDS011;24973;47.178;15.316;2023-08-20T02:37:20;19.80;;;17.73;;
21798;SDS011;24973;47.178;15.316;2023-08-20T02:40:10;19.53;;;16.50;;
21798;SDS011;24973;47.178;15.316;2023-08-20T02:43:01;19.63;;;17.37;;
21798;SDS011;24973;47.178;15.316;2023-08-20T02:45:50;20.53;;;18.30;;
21798;SDS011;24973;47.178;15.316;2023-08-20T02:48:39;20.00;;;17.37;;
21798;SDS011;24973;47.178;15.316;2023-08-20T02:51:28;21.17;;;17.57;;
21798;SDS011;24973;47.178;15.316;2023-08-20T02:54:18;24.93;;;18.37;;
21798;SDS011;24973;47.178;15.316;2023-08-20T02:57:07;23.77;;;17.10;;
21798;SDS011;24973;47.178;15.316;2023-08-20T02:59:56;20.33;;;16.03;;
21798;SDS011;24973;47.178;15.316;2023-08-20T03:02:45;21.93;;;17.70;;
21798;SDS011;24973;47.178;15.316;2023-08-20T03:05:35;18.60;;;16.50;;
21798;SDS011;24973;47.178;15.316;2023-08-20T03:08:31;24.90;;;16.93;;
21798;SDS011;24973;47.178;15.316;2023-08-20T03:11:21;20.00;;;16.87;;
21798;SDS011;24973;47.178;15.316;2023-08-20T03:14:10;19.27;;;16.83;;
21798;SDS011;24973;47.178;15.316;2023-08-20T03:16:59;19.13;;;16.20;;
21798;SDS011;24973;47.178;15.316;2023-08-20T03:19:56;18.73;;;16.83;;
21798;SDS011;24973;47.178;15.316;2023-08-20T03:22:45;21.60;;;18.27;;
21798;SDS011;24973;47.178;15.316;2023-08-20T03:25:34;19.47;;;17.37;;
21798;SDS011;24973;47.178;15.316;2023-08-20T03:28:25;25.27;;;17.33;;
21798;SDS011;24973;47.178;15.316;2023-08-20T03:31:14;20.57;;;17.70;;
21798;SDS011;24973;47.178;15.316;2023-08-20T03:34:03;21.33;;;18.87;;
21798;SDS011;24973;47.178;15.316;2023-08-20T03:36:52;23.77;;;18.50;;
21798;SDS011;24973;47.178;15.316;2023-08-20T03:39:41;23.83;;;18.73;;
21798;SDS011;24973;47.178;15.316;2023-08-20T03:42:30;22.97;;;19.13;;
21798;SDS011;24973;47.178;15.316;2023-08-20T03:45:21;24.77;;;19.40;;
21798;SDS011;24973;47.178;15.316;2023-08-20T03:48:10;23.53;;;17.60;;
21798;SDS011;24973;47.178;15.316;2023-08-20T03:50:59;24.97;;;20.43;;
21798;SDS011;24973;47.178;15.316;2023-08-20T03:53:48;23.20;;;18.93;;
21798;SDS011;24973;47.178;15.316;2023-08-20T03:56:37;21.17;;;18.80;;
21798;SDS011;24973;47.178;15.316;2023-08-20T03:59:26;21.77;;;17.73;;
21798;SDS011;24973;47.178;15.316;2023-08-20T04:02:16;22.73;;;18.10;;
21798;SDS011;24973;47.178;15.316;2023-08-20T04:05:05;23.93;;;19.60;;
21798;SDS011;24973;47.178;15.316;2023-08-20T04:07:55;21.47;;;18.03;;
21798;SDS011;24973;47.178;15.316;2023-08-20T04:10:44;24.43;;;17.57;;
21798;SDS011;24973;47.178;15.316;2023-08-20T04:13:33;21.70;;;17.53;;
21798;SDS011;24973;47.178;15.316;2023-08-20T04:16:22;20.07;;;17.87;;
21798;SDS011;24973;47.178;15.316;2023-08-20T04:19:13;20.57;;;18.33;;
21798;SDS011;24973;47.178;15.316;2023-08-20T04:22:02;21.90;;;18.27;;
21798;SDS011;24973;47.178;15.316;2023-08-20T04:24:51;22.63;;;18.57;;
21798;SDS011;24973;47.178;15.316;2023-08-20T04:27:40;19.20;;;17.17;;
21798;SDS011;24973;47.178;15.316;2023-08-20T04:30:29;21.37;;;18.17;;
21798;SDS011;24973;47.178;15.316;2023-08-20T04:33:18;24.03;;;16.73;;
21798;SDS011;24973;47.178;15.316;2023-08-20T04:36:08;22.80;;;19.00;;
21798;SDS011;24973;47.178;15.316;2023-08-20T04:38:58;20.60;;;17.33;;
21798;SDS011;24973;47.178;15.316;2023-08-20T04:41:47;20.87;;;17.60;;
21798;SDS011;24973;47.178;15.316;2023-08-20T04:44:36;24.27;;;17.43;;
21798;SDS011;24973;47.178;15.316;2023-08-20T04:47:25;24.90;;;18.87;;
21798;SDS011;24973;47.178;15.316;2023-08-20T04:50:14;20.83;;;18.50;;
21798;SDS011;24973;47.178;15.316;2023-08-20T04:53:06;20.00;;;17.80;;
21798;SDS011;24973;47.178;15.316;2023-08-20T04:55:56;22.70;;;17.70;;
21798;SDS011;24973;47.178;15.316;2023-08-20T04:58:45;27.47;;;20.97;;
21798;SDS011;24973;47.178;15.316;2023-08-20T05:01:34;23.47;;;19.33;;
21798;SDS011;24973;47.178;15.316;2023-08-20T05:04:24;21.87;;;17.60;;
21798;SDS011;24973;47.178;15.316;2023-08-20T05:07:14;19.43;;;15.60;;
21798;SDS011;24973;47.178;15.316;2023-08-20T05:10:05;23.83;;;17.23;;
21798;SDS011;24973;47.178;15.316;2023-08-20T05:12:55;21.43;;;17.73;;
21798;SDS011;24973;47.178;15.316;2023-08-20T05:15:44;20.00;;;17.17;;
21798;SDS011;24973;47.178;15.316;2023-08-20T05:18:34;21.80;;;18.27;;
21798;SDS011;24973;47.178;15.316;2023-08-20T05:21:23;21.60;;;17.60;;
21798;SDS011;24973;47.178;15.316;2023-08-20T05:24:12;21.60;;;17.33;;
21798;SDS011;24973;47.178;15.316;2023-08-20T05:27:11;19.00;;;16.97;;
21798;SDS011;24973;47.178;15.316;2023-08-20T05:30:02;21.27;;;15.93;;
21798;SDS011;24973;47.178;15.316;2023-08-20T05:32:51;18.63;;;16.63;;
21798;SDS011;24973;47.178;15.316;2023-08-20T05:35:40;21.30;;;16.63;;
21798;SDS011;24973;47.178;15.316;2023-08-20T05:38:29;20.73;;;16.00;;
21798;SDS011;24973;47.178;15.316;2023-08-20T05:41:20;19.33;;;17.23;;
21798;SDS011;24973;47.178;15.316;2023-08-20T05:44:10;17.97;;;15.60;;
21798;SDS011;24973;47.178;15.316;2023-08-20T05:46:59;19.37;;;15.00;;
21798;SDS011;24973;47.178;15.316;2023-08-20T05:49:49;17.93;;;15.03;;
21798;SDS011;24973;47.178;15.316;2023-08-20T05:52:38;17.17;;;15.03;;
21798;SDS011;24973;47.178;15.316;2023-08-20T05:55:27;17.57;;;15.77;;
21798;SDS011;24973;47.178;15.316;2023-08-20T05:58:16;18.23;;;16.20;;
21798;SDS011;24973;47.178;15.316;2023-08-20T06:01:06;18.57;;;15.80;;
21798;SDS011;24973;47.178;15.316;2023-08-20T06:03:55;18.57;;;16.03;;
21798;SDS011;24973;47.178;15.316;2023-08-20T06:06:44;19.97;;;15.53;;
21798;SDS011;24973;47.178;15.316;2023-08-20T06:09:33;24.70;;;15.77;;
21798;SDS011;24973;47.178;15.316;2023-08-20T06:12:22;16.87;;;15.07;;
21798;SDS011;24973;47.178;15.316;2023-08-20T06:15:11;17.40;;;15.40;;
21798;SDS011;24973;47.178;15.316;2023-08-20T06:18:02;16.90;;;14.33;;
21798;SDS011;24973;47.178;15.316;2023-08-20T06:20:52;17.63;;;15.37;;
21798;SDS011;24973;47.178;15.316;2023-08-20T06:23:41;20.33;;;15.13;;
21798;SDS011;24973;47.178;15.316;2023-08-20T06:26:30;16.43;;;14.73;;
21798;SDS011;24973;47.178;15.316;2023-08-20T06:29:19;20.93;;;15.60;;
21798;SDS011;24973;47.178;15.316;2023-08-20T06:32:09;18.83;;;13.03;;
21798;SDS011;24973;47.178;15.316;2023-08-20T06:34:59;17.23;;;14.87;;
21798;SDS011;24973;47.178;15.316;2023-08-20T06:37:48;17.53;;;14.80;;
21798;SDS011;24973;47.178;15.316;2023-08-20T06:40:38;15.10;;;13.23;;
21798;SDS011;24973;47.178;15.316;2023-08-20T06:43:27;15.30;;;12.00;;
21798;SDS011;24973;47.178;15.316;2023-08-20T06:46:16;13.33;;;11.90;;
21798;SDS011;24973;47.178;15.316;2023-08-20T06:49:05;14.60;;;12.07;;
21798;SDS011;24973;47.178;15.316;2023-08-20T06:51:55;13.90;;;12.60;;
21798;SDS011;24973;47.178;15.316;2023-08-20T06:54:44;14.67;;;13.13;;
21798;SDS011;24973;47.178;15.316;2023-08-20T06:57:33;18.87;;;12.57;;
21798;SDS011;24973;47.178;15.316;2023-08-20T07:00:22;13.87;;;11.73;;
21798;SDS011;24973;47.178;15.316;2023-08-20T07:03:11;12.03;;;10.67;;
21798;SDS011;24973;47.178;15.316;2023-08-20T07:06:00;13.80;;;12.40;;
21798;SDS011;24973;47.178;15.316;2023-08-20T07:08:51;12.73;;;11.50;;
21798;SDS011;24973;47.178;15.316;2023-08-20T07:11:40;12.57;;;11.23;;
21798;SDS011;24973;47.178;15.316;2023-08-20T07:14:29;15.47;;;12.07;;
21798;SDS011;24973;47.178;15.316;2023-08-20T07:17:18;12.60;;;11.30;;
21798;SDS011;24973;47.178;15.316;2023-08-20T07:20:08;12.97;;;11.20;;
21798;SDS011;24973;47.178;15.316;2023-08-20T07:22:57;13.23;;;11.83;;
21798;SDS011;24973;47.178;15.316;2023-08-20T07:25:48;13.40;;;12.00;;
21798;SDS011;24973;47.178;15.316;2023-08-20T07:28:39;16.53;;;12.43;;
21798;SDS011;24973;47.178;15.316;2023-08-20T07:31:44;14.17;;;11.97;;
21798;SDS011;24973;47.178;15.316;2023-08-20T07:34:33;13.77;;;10.60;;
21798;SDS011;24973;47.178;15.316;2023-08-20T07:37:22;14.03;;;12.63;;
21798;SDS011;24973;47.178;15.316;2023-08-20T07:40:11;12.53;;;11.20;;
21798;SDS011;24973;47.178;15.316;2023-08-20T07:43:03;12.50;;;10.87;;
21798;SDS011;24973;47.178;15.316;2023-08-20T07:45:52;15.37;;;11.43;;
21798;SDS011;24973;47.178;15.316;2023-08-20T07:48:41;12.17;;;11.00;;
21798;SDS011;24973;47.178;15.316;2023-08-20T07:51:30;15.23;;;12.47;;
21798;SDS011;24973;47.178;15.316;2023-08-20T07:54:20;12.73;;;11.47;;
21798;SDS011;24973;47.178;15.316;2023-08-20T07:57:09;14.00;;;11.17;;
21798;SDS011;24973;47.178;15.316;2023-08-20T07:59:59;13.23;;;10.47;;
21798;SDS011;24973;47.178;15.316;2023-08-20T08:02:50;14.37;;;11.13;;
21798;SDS011;24973;47.178;15.316;2023-08-20T08:05:40;16.90;;;13.33;;
21798;SDS011;24973;47.178;15.316;2023-08-20T08:08:29;14.40;;;11.40;;
21798;SDS011;24973;47.178;15.316;2023-08-20T08:11:18;12.33;;;9.73;;
21798;SDS011;24973;47.178;15.316;2023-08-20T08:14:07;12.73;;;11.43;;
21798;SDS011;24973;47.178;15.316;2023-08-20T08:16:59;12.70;;;11.10;;
21798;SDS011;24973;47.178;15.316;2023-08-20T08:19:49;13.57;;;10.67;;
21798;SDS011;24973;47.178;15.316;2023-08-20T08:22:40;13.77;;;11.53;;
21798;SDS011;24973;47.178;15.316;2023-08-20T08:25:29;11.67;;;10.47;;
21798;SDS011;24973;47.178;15.316;2023-08-20T08:28:18;11.90;;;10.80;;
21798;SDS011;24973;47.178;15.316;2023-08-20T08:31:08;11.77;;;10.57;;
21798;SDS011;24973;47.178;15.316;2023-08-20T08:33:58;10.90;;;9.80;;
21798;SDS011;24973;47.178;15.316;2023-08-20T08:36:47;10.90;;;9.90;;
21798;SDS011;24973;47.178;15.316;2023-08-20T08:39:36;12.87;;;11.53;;
21798;SDS011;24973;47.178;15.316;2023-08-20T08:42:25;11.87;;;10.67;;
21798;SDS011;24973;47.178;15.316;2023-08-20T08:45:15;13.43;;;11.40;;
21798;SDS011;24973;47.178;15.316;2023-08-20T08:48:06;11.83;;;10.63;;
21798;SDS011;24973;47.178;15.316;2023-08-20T08:50:57;11.83;;;9.93;;
21798;SDS011;24973;47.178;15.316;2023-08-20T08:53:46;10.50;;;9.50;;
21798;SDS011;24973;47.178;15.316;2023-08-20T08:56:35;10.80;;;8.87;;
21798;SDS011;24973;47.178;15.316;2023-08-20T08:59:25;9.60;;;8.60;;
21798;SDS011;24973;47.178;15.316;2023-08-20T09:02:14;10.13;;;8.90;;
21798;SDS011;24973;47.178;15.316;2023-08-20T09:05:06;9.07;;;8.27;;
21798;SDS011;24973;47.178;15.316;2023-08-20T09:07:56;10.32;;;9.27;;
21798;SDS011;24973;47.178;15.316;2023-08-20T09:10:46;13.27;;;10.27;;
21798;SDS011;24973;47.178;15.316;2023-08-20T09:13:37;11.02;;;8.68;;
21798;SDS011;24973;47.178;15.316;2023-08-20T09:16:28;11.35;;;10.20;;
21798;SDS011;24973;47.178;15.316;2023-08-20T09:19:18;10.45;;;9.15;;
21798;SDS011;24973;47.178;15.316;2023-08-20T09:22:07;10.02;;;9.13;;
21798;SDS011;24973;47.178;15.316;2023-08-20T09:24:58;10.93;;;9.93;;
21798;SDS011;24973;47.178;15.316;2023-08-20T09:27:47;10.07;;;9.18;;
21798;SDS011;24973;47.178;15.316;2023-08-20T09:30:36;9.18;;;8.18;;
21798;SDS011;24973;47.178;15.316;2023-08-20T09:33:27;11.68;;;9.07;;
21798;SDS011;24973;47.178;15.316;2023-08-20T09:36:17;10.70;;;9.23;;
21798;SDS011;24973;47.178;15.316;2023-08-20T09:39:06;9.55;;;8.45;;
21798;SDS011;24973;47.178;15.316;2023-08-20T09:41:56;9.88;;;8.85;;
21798;SDS011;24973;47.178;15.316;2023-08-20T09:44:47;11.35;;;9.38;;
21798;SDS011;24973;47.178;15.316;2023-08-20T09:47:37;10.45;;;9.45;;
21798;SDS011;24973;47.178;15.316;2023-08-20T09:50:29;9.90;;;9.00;;
21798;SDS011;24973;47.178;15.316;2023-08-20T09:53:26;11.85;;;10.50;;
21798;SDS011;24973;47.178;15.316;2023-08-20T09:56:24;10.68;;;8.93;;
21798;SDS011;24973;47.178;15.316;2023-08-20T09:59:18;9.70;;;8.70;;
21798;SDS011;24973;47.178;15.316;2023-08-20T10:02:07;8.85;;;7.95;;
21798;SDS011;24973;47.178;15.316;2023-08-20T10:05:00;9.90;;;8.95;;
21798;SDS011;24973;47.178;15.316;2023-08-20T10:07:50;9.32;;;8.50;;
21798;SDS011;24973;47.178;15.316;2023-08-20T10:10:39;9.75;;;8.82;;
21798;SDS011;24973;47.178;15.316;2023-08-20T10:13:28;10.75;;;9.75;;
21798;SDS011;24973;47.178;15.316;2023-08-20T10:16:18;10.20;;;9.23;;
21798;SDS011;24973;47.178;15.316;2023-08-20T10:19:10;9.80;;;8.82;;
21798;SDS011;24973;47.178;15.316;2023-08-20T10:21:59;10.45;;;9.35;;
21798;SDS011;24973;47.178;15.316;2023-08-20T10:24:52;10.35;;;8.68;;
21798;SDS011;24973;47.178;15.316;2023-08-20T10:27:43;9.75;;;8.90;;
21798;SDS011;24973;47.178;15.316;2023-08-20T10:30:32;9.65;;;8.75;;
21798;SDS011;24973;47.178;15.316;2023-08-20T10:33:23;12.35;;;9.23;;
21798;SDS011;24973;47.178;15.316;2023-08-20T10:36:16;9.30;;;8.45;;
21798;SDS011;24973;47.178;15.316;2023-08-20T10:39:09;10.93;;;10.02;;
21798;SDS011;24973;47.178;15.316;2023-08-20T10:42:21;10.10;;;9.20;;
21798;SDS011;24973;47.178;15.316;2023-08-20T10:45:12;11.40;;;8.45;;
21798;SDS011;24973;47.178;15.316;2023-08-20T10:48:01;10.90;;;9.10;;
21798;SDS011;24973;47.178;15.316;2023-08-20T10:50:52;9.73;;;8.73;;
21798;SDS011;24973;47.178;15.316;2023-08-20T10:53:43;9.35;;;8.45;;
21798;SDS011;24973;47.178;15.316;2023-08-20T10:56:55;11.15;;;9.40;;
21798;SDS011;24973;47.178;15.316;2023-08-20T10:59:50;10.18;;;8.93;;
21798;SDS011;24973;47.178;15.316;2023-08-20T11:02:45;10.40;;;9.07;;
21798;SDS011;24973;47.178;15.316;2023-08-20T11:05:35;10.15;;;9.35;;
21798;SDS011;24973;47.178;15.316;2023-08-20T11:08:26;15.57;;;11.15;;
21798;SDS011;24973;47.178;15.316;2023-08-20T11:11:15;11.38;;;10.27;;
21798;SDS011;24973;47.178;15.316;2023-08-20T11:14:07;10.63;;;9.52;;
21798;SDS011;24973;47.178;15.316;2023-08-20T11:17:00;11.32;;;9.93;;
21798;SDS011;24973;47.178;15.316;2023-08-20T11:19:50;9.95;;;9.10;;
21798;SDS011;24973;47.178;15.316;2023-08-20T11:22:44;10.35;;;9.32;;
21798;SDS011;24973;47.178;15.316;2023-08-20T11:25:34;11.25;;;9.23;;
21798;SDS011;24973;47.178;15.316;2023-08-20T11:28:29;11.25;;;10.25;;
21798;SDS011;24973;47.178;15.316;2023-08-20T11:31:18;9.73;;;8.82;;
21798;SDS011;24973;47.178;15.316;2023-08-20T11:34:07;10.18;;;8.68;;
21798;SDS011;24973;47.178;15.316;2023-08-20T11:36:56;9.93;;;9.02;;
21798;SDS011;24973;47.178;15.316;2023-08-20T11:39:47;9.30;;;8.50;;
21798;SDS011;24973;47.178;15.316;2023-08-20T11:42:37;10.02;;;9.00;;
21798;SDS011;24973;47.178;15.316;2023-08-20T11:45:26;9.75;;;8.55;;
21798;SDS011;24973;47.178;15.316;2023-08-20T11:48:15;9.48;;;8.63;;
21798;SDS011;24973;47.178;15.316;2023-08-20T11:51:04;10.07;;;9.18;;
21798;SDS011;24973;47.178;15.316;2023-08-20T11:53:53;9.30;;;8.25;;
21798;SDS011;24973;47.178;15.316;2023-08-20T11:56:43;8.93;;;8.13;;
21798;SDS011;24973;47.178;15.316;2023-08-20T11:59:35;8.95;;;8.20;;
21798;SDS011;24973;47.178;15.316;2023-08-20T12:02:24;9.13;;;8.23;;
21798;SDS011;24973;47.178;15.316;2023-08-20T12:05:21;8.80;;;8.02;;
21798;SDS011;24973;47.178;15.316;2023-08-20T12:08:15;8.20;;;7.50;;
21798;SDS011;24973;47.178;15.316;2023-08-20T12:11:04;8.05;;;7.35;;
21798;SDS011;24973;47.178;15.316;2023-08-20T12:13:53;8.68;;;7.90;;
21798;SDS011;24973;47.178;15.316;2023-08-20T12:16:44;11.60;;;7.60;;
21798;SDS011;24973;47.178;15.316;2023-08-20T12:19:33;8.40;;;7.55;;
21798;SDS011;24973;47.178;15.316;2023-08-20T12:22:22;8.77;;;8.07;;
21798;SDS011;24973;47.178;15.316;2023-08-20T12:25:10;8.68;;;7.60;;
21798;SDS011;24973;47.178;15.316;2023-08-20T12:27:59;8.50;;;7.70;;
21798;SDS011;24973;47.178;15.316;2023-08-20T12:30:50;8.02;;;7.38;;
21798;SDS011;24973;47.178;15.316;2023-08-20T12:33:40;7.88;;;7.18;;
21798;SDS011;24973;47.178;15.316;2023-08-20T12:36:29;6.88;;;6.28;;
21798;SDS011;24973;47.178;15.316;2023-08-20T12:39:18;7.75;;;7.13;;
21798;SDS011;24973;47.178;15.316;2023-08-20T12:42:07;8.25;;;7.15;;
21798;SDS011;24973;47.178;15.316;2023-08-20T12:44:56;9.10;;;7.63;;
21798;SDS011;24973;47.178;15.316;2023-08-20T12:47:44;8.35;;;7.55;;
21798;SDS011;24973;47.178;15.316;2023-08-20T12:50:35;7.55;;;6.95;;
21798;SDS011;24973;47.178;15.316;2023-08-20T12:56:12;7.95;;;7.20;;
21798;SDS011;24973;47.178;15.316;2023-08-20T12:59:02;7.95;;;6.93;;
21798;SDS011;24973;47.178;15.316;2023-08-20T13:01:51;8.30;;;7.30;;
21798;SDS011;24973;47.178;15.316;2023-08-20T13:04:40;8.18;;;7.47;;
21798;SDS011;24973;47.178;15.316;2023-08-20T13:07:32;9.15;;;8.15;;
21798;SDS011;24973;47.178;15.316;2023-08-20T13:10:22;8.57;;;7.78;;
21798;SDS011;24973;47.178;15.316;2023-08-20T13:13:12;8.82;;;7.70;;
21798;SDS011;24973;47.178;15.316;2023-08-20T13:16:02;7.95;;;7.00;;
21798;SDS011;24973;47.178;15.316;2023-08-20T13:18:51;7.82;;;7.22;;
21798;SDS011;24973;47.178;15.316;2023-08-20T13:21:41;7.78;;;7.07;;
21798;SDS011;24973;47.178;15.316;2023-08-20T13:24:31;8.48;;;7.68;;
21798;SDS011;24973;47.178;15.316;2023-08-20T13:27:20;8.40;;;7.57;;
21798;SDS011;24973;47.178;15.316;2023-08-20T13:30:11;10.23;;;7.53;;
21798;SDS011;24973;47.178;15.316;2023-08-20T13:33:00;8.15;;;7.35;;
21798;SDS011;24973;47.178;15.316;2023-08-20T13:35:50;8.23;;;6.30;;
21798;SDS011;24973;47.178;15.316;2023-08-20T13:38:39;8.15;;;6.78;;
21798;SDS011;24973;47.178;15.316;2023-08-20T13:41:29;7.97;;;7.18;;
21798;SDS011;24973;47.178;15.316;2023-08-20T13:44:19;8.13;;;7.35;;
21798;SDS011;24973;47.178;15.316;2023-08-20T13:47:08;7.47;;;6.82;;
21798;SDS011;24973;47.178;15.316;2023-08-20T13:49:56;6.90;;;6.30;;
21798;SDS011;24973;47.178;15.316;2023-08-20T13:52:45;7.75;;;6.65;;
21798;SDS011;24973;47.178;15.316;2023-08-20T13:55:34;7.05;;;6.45;;
21798;SDS011;24973;47.178;15.316;2023-08-20T13:58:24;7.53;;;6.75;;
21798;SDS011;24973;47.178;15.316;2023-08-20T14:01:13;7.00;;;6.50;;
21798;SDS011;24973;47.178;15.316;2023-08-20T14:04:02;7.45;;;6.70;;
21798;SDS011;24973;47.178;15.316;2023-08-20T14:06:51;7.20;;;6.60;;
21798;SDS011;24973;47.178;15.316;2023-08-20T14:09:40;8.43;;;6.70;;
21798;SDS011;24973;47.178;15.316;2023-08-20T14:12:29;7.53;;;6.82;;
21798;SDS011;24973;47.178;15.316;2023-08-20T14:15:19;7.13;;;6.45;;
21798;SDS011;24973;47.178;15.316;2023-08-20T14:18:08;7.50;;;6.80;;
21798;SDS011;24973;47.178;15.316;2023-08-20T14:20:57;6.60;;;6.05;;
21798;SDS011;24973;47.178;15.316;2023-08-20T14:23:46;7.63;;;6.95;;
21798;SDS011;24973;47.178;15.316;2023-08-20T14:26:35;6.65;;;6.15;;
21798;SDS011;24973;47.178;15.316;2023-08-20T14:29:23;6.47;;;5.97;;
21798;SDS011;24973;47.178;15.316;2023-08-20T14:32:14;7.93;;;6.15;;
21798;SDS011;24973;47.178;15.316;2023-08-20T14:35:03;7.30;;;6.60;;
21798;SDS011;24973;47.178;15.316;2023-08-20T14:37:52;7.30;;;6.60;;
21798;SDS011;24973;47.178;15.316;2023-08-20T14:40:41;6.72;;;6.20;;
21798;SDS011;24973;47.178;15.316;2023-08-20T14:43:30;9.23;;;7.55;;
21798;SDS011;24973;47.178;15.316;2023-08-20T14:46:20;7.20;;;6.45;;
21798;SDS011;24973;47.178;15.316;2023-08-20T14:49:10;7.53;;;6.78;;
21798;SDS011;24973;47.178;15.316;2023-08-20T14:51:59;7.30;;;6.63;;
21798;SDS011;24973;47.178;15.316;2023-08-20T14:54:55;8.02;;;6.47;;
21798;SDS011;24973;47.178;15.316;2023-08-20T14:57:44;7.68;;;6.95;;
21798;SDS011;24973;47.178;15.316;2023-08-20T15:00:36;6.60;;;6.03;;
21798;SDS011;24973;47.178;15.316;2023-08-20T15:03:25;7.25;;;6.65;;
21798;SDS011;24973;47.178;15.316;2023-08-20T15:06:16;7.38;;;6.68;;
21798;SDS011;24973;47.178;15.316;2023-08-20T15:09:08;8.38;;;7.30;;
21798;SDS011;24973;47.178;15.316;2023-08-20T15:12:02;7.75;;;7.07;;
21798;SDS011;24973;47.178;15.316;2023-08-20T15:14:51;6.93;;;6.10;;
21798;SDS011;24973;47.178;15.316;2023-08-20T15:17:39;7.20;;;6.50;;
21798;SDS011;24973;47.178;15.316;2023-08-20T15:20:28;9.05;;;6.03;;
21798;SDS011;24973;47.178;15.316;2023-08-20T15:23:19;7.80;;;7.00;;
21798;SDS011;24973;47.178;15.316;2023-08-20T15:26:07;7.57;;;6.88;;
21798;SDS011;24973;47.178;15.316;2023-08-20T15:28:56;7.68;;;6.97;;
21798;SDS011;24973;47.178;15.316;2023-08-20T15:31:45;6.97;;;6.47;;
21798;SDS011;24973;47.178;15.316;2023-08-20T15:34:35;7.28;;;6.63;;
21798;SDS011;24973;47.178;15.316;2023-08-20T15:37:24;6.88;;;5.70;;
21798;SDS011;24973;47.178;15.316;2023-08-20T15:40:15;7.30;;;6.00;;
21798;SDS011;24973;47.178;15.316;2023-08-20T15:43:04;8.55;;;6.38;;
21798;SDS011;24973;47.178;15.316;2023-08-20T15:45:53;6.70;;;6.20;;
21798;SDS011;24973;47.178;15.316;2023-08-20T15:48:42;9.40;;;6.78;;
21798;SDS011;24973;47.178;15.316;2023-08-20T15:51:31;7.05;;;5.95;;
21798;SDS011;24973;47.178;15.316;2023-08-20T15:54:20;7.10;;;6.35;;
21798;SDS011;24973;47.178;15.316;2023-08-20T15:57:10;6.97;;;6.38;;
21798;SDS011;24973;47.178;15.316;2023-08-20T15:59:59;6.60;;;6.00;;
21798;SDS011;24973;47.178;15.316;2023-08-20T16:02:48;9.00;;;7.35;;
21798;SDS011;24973;47.178;15.316;2023-08-20T16:05:37;6.75;;;6.20;;
21798;SDS011;24973;47.178;15.316;2023-08-20T16:08:26;7.38;;;6.68;;
21798;SDS011;24973;47.178;15.316;2023-08-20T16:11:15;7.10;;;6.50;;
21798;SDS011;24973;47.178;15.316;2023-08-20T16:14:05;6.22;;;5.63;;
21798;SDS011;24973;47.178;15.316;2023-08-20T16:16:54;7.75;;;6.22;;
21798;SDS011;24973;47.178;15.316;2023-08-20T16:19:43;7.50;;;6.80;;
21798;SDS011;24973;47.178;15.316;2023-08-20T16:22:32;9.93;;;7.35;;
21798;SDS011;24973;47.178;15.316;2023-08-20T16:25:21;8.20;;;6.30;;
21798;SDS011;24973;47.178;15.316;2023-08-20T16:28:09;7.90;;;7.10;;
21798;SDS011;24973;47.178;15.316;2023-08-20T16:31:00;7.88;;;7.15;;
21798;SDS011;24973;47.178;15.316;2023-08-20T16:33:49;8.25;;;7.43;;
21798;SDS011;24973;47.178;15.316;2023-08-20T16:36:39;11.07;;;7.75;;